createdAt,value
2023-05-04T00:01:01.352Z,9.18
2023-05-04T00:03:27.296Z,9.12
2023-05-04T00:05:53.139Z,9.19
2023-05-04T00:08:18.983Z,9.14
2023-05-04T00:10:44.831Z,8.95
2023-05-04T00:13:11.235Z,9.02
2023-05-04T00:15:37.154Z,9.04
2023-05-04T00:18:03.091Z,9.15
2023-05-04T00:20:28.878Z,8.97
2023-05-04T00:22:54.849Z,8.96
2023-05-04T00:25:20.735Z,8.98
2023-05-04T00:27:46.559Z,8.78
2023-05-04T00:30:12.652Z,8.82
2023-05-04T00:32:38.513Z,8.73
2023-05-04T00:35:04.702Z,8.69
2023-05-04T00:37:30.523Z,8.78
2023-05-04T00:39:56.328Z,8.74
2023-05-04T00:42:22.164Z,8.84
2023-05-04T00:44:47.974Z,8.74
2023-05-04T00:47:16.085Z,8.73
2023-05-04T00:49:41.950Z,8.84
2023-05-04T00:52:09.784Z,8.83
2023-05-04T00:54:35.720Z,8.73
2023-05-04T00:57:02.810Z,8.74
2023-05-04T00:59:28.570Z,8.68
2023-05-04T01:01:54.532Z,8.69
2023-05-04T01:04:20.905Z,8.66
2023-05-04T01:07:20.231Z,8.56
2023-05-04T01:09:57.554Z,8.67
2023-05-04T01:12:37.160Z,8.73
2023-05-04T01:15:03.511Z,8.84
2023-05-04T01:17:29.455Z,8.64
2023-05-04T01:19:55.241Z,8.64
2023-05-04T01:22:21.489Z,8.56
2023-05-04T01:24:47.437Z,8.51
2023-05-04T01:27:23.727Z,8.56
2023-05-04T01:29:57.869Z,8.55
2023-05-04T01:32:29.539Z,8.46
2023-05-04T01:34:56.028Z,8.49
2023-05-04T01:37:21.994Z,8.45
2023-05-04T01:39:47.832Z,8.37
2023-05-04T01:42:13.622Z,8.32
2023-05-04T01:44:39.914Z,8.42
2023-05-04T01:47:05.852Z,8.46
2023-05-04T01:49:31.629Z,8.48
2023-05-04T01:51:57.452Z,8.56
2023-05-04T01:54:23.228Z,8.54
2023-05-04T01:56:49.071Z,8.45
2023-05-04T01:59:15.170Z,8.41
2023-05-04T02:01:41.199Z,8.39
2023-05-04T02:04:07.517Z,8.44
2023-05-04T02:06:33.424Z,8.40
2023-05-04T02:08:59.406Z,8.36
2023-05-04T02:11:25.313Z,8.24
2023-05-04T02:13:51.109Z,8.35
2023-05-04T02:16:16.959Z,8.27
2023-05-04T02:18:42.855Z,8.31
2023-05-04T02:21:08.725Z,8.15
2023-05-04T02:23:37.243Z,8.25
2023-05-04T02:26:03.094Z,8.16
2023-05-04T02:28:29.009Z,8.25
2023-05-04T02:30:54.774Z,8.22
2023-05-04T02:33:20.978Z,8.40
2023-05-04T02:35:46.792Z,8.36
2023-05-04T02:38:12.638Z,8.26
2023-05-04T02:40:38.388Z,8.14
2023-05-04T02:43:04.175Z,8.10
2023-05-04T02:45:30.051Z,8.04
2023-05-04T02:47:55.979Z,8.11
2023-05-04T02:50:21.820Z,8.13
2023-05-04T02:52:47.643Z,8.20
2023-05-04T02:55:13.508Z,8.25
2023-05-04T02:57:39.333Z,8.21
2023-05-04T03:00:06.306Z,8.22
2023-05-04T03:02:32.606Z,8.31
2023-05-04T03:04:58.440Z,8.33
2023-05-04T03:07:24.865Z,8.15
2023-05-04T03:09:50.682Z,8.05
2023-05-04T03:12:16.498Z,8.11
2023-05-04T03:17:08.467Z,8.09
2023-05-04T03:19:34.339Z,7.96
2023-05-04T03:22:00.154Z,7.97
2023-05-04T03:24:26.064Z,7.84
2023-05-04T03:26:51.894Z,7.99
2023-05-04T03:29:17.730Z,8.01
2023-05-04T03:31:43.637Z,7.95
2023-05-04T03:34:11.741Z,7.91
2023-05-04T03:36:38.046Z,7.85
2023-05-04T03:39:03.901Z,7.87
2023-05-04T03:41:29.639Z,7.91
2023-05-04T03:43:55.474Z,7.92
2023-05-04T03:46:21.415Z,7.91
2023-05-04T03:48:47.188Z,7.97
2023-05-04T03:51:13.106Z,7.83
2023-05-04T03:53:38.948Z,7.72
2023-05-04T03:56:05.034Z,7.76
2023-05-04T03:58:30.928Z,7.81
2023-05-04T04:00:56.692Z,7.68
2023-05-04T04:03:22.764Z,7.64
2023-05-04T04:05:49.271Z,7.81
2023-05-04T04:08:15.051Z,7.86
2023-05-04T04:10:41.435Z,7.88
2023-05-04T04:13:07.234Z,7.84
2023-05-04T04:15:35.354Z,7.80
2023-05-04T04:18:01.387Z,7.81
2023-05-04T04:20:27.295Z,7.90
2023-05-04T04:22:53.278Z,7.97
2023-05-04T04:25:19.183Z,8.02
2023-05-04T04:27:45.030Z,8.01
2023-05-04T04:30:11.509Z,8.07
2023-05-04T04:32:37.512Z,8.00
2023-05-04T04:35:04.095Z,7.98
2023-05-04T04:37:30.006Z,8.11
2023-05-04T04:39:55.781Z,8.09
2023-05-04T04:42:21.584Z,7.94
2023-05-04T04:44:48.741Z,7.91
2023-05-04T04:47:15.938Z,7.98
2023-05-04T04:49:42.621Z,7.99
2023-05-04T04:52:08.393Z,8.08
2023-05-04T04:54:34.718Z,8.13
2023-05-04T04:57:00.642Z,8.05
2023-05-04T04:59:26.408Z,8.06
2023-05-04T05:01:52.151Z,8.20
2023-05-04T05:04:21.751Z,8.18
2023-05-04T05:06:47.957Z,8.14
2023-05-04T05:09:13.791Z,8.22
2023-05-04T05:11:39.735Z,8.19
2023-05-04T05:14:05.824Z,8.24
2023-05-04T05:16:32.081Z,8.23
2023-05-04T05:18:57.997Z,8.36
2023-05-04T05:21:23.816Z,8.31
2023-05-04T05:23:49.652Z,8.47
2023-05-04T05:26:15.516Z,8.42
2023-05-04T05:28:41.299Z,8.49
2023-05-04T05:31:07.185Z,8.53
2023-05-04T05:33:33.069Z,8.52
2023-05-04T05:36:05.377Z,8.52
2023-05-04T05:38:31.953Z,8.73
2023-05-04T05:40:57.918Z,8.62
2023-05-04T05:43:23.727Z,8.70
2023-05-04T05:45:49.476Z,8.86
2023-05-04T05:48:15.458Z,8.89
2023-05-04T05:50:41.359Z,8.98
2023-05-04T05:53:07.245Z,8.98
2023-05-04T05:55:33.180Z,9.10
2023-05-04T05:57:58.964Z,9.16
2023-05-04T06:00:25.391Z,9.19
2023-05-04T06:02:51.909Z,9.38
2023-05-04T06:05:17.882Z,9.31
2023-05-04T06:07:43.734Z,9.33
2023-05-04T06:10:10.176Z,9.50
2023-05-04T06:12:36.096Z,9.66
2023-05-04T06:15:01.951Z,9.79
2023-05-04T06:17:27.849Z,9.94
2023-05-04T06:19:53.722Z,10.07
2023-05-04T06:22:19.581Z,10.08
2023-05-04T06:24:45.783Z,10.16
2023-05-04T06:27:11.703Z,10.33
2023-05-04T06:29:40.700Z,10.27
2023-05-04T06:32:09.331Z,10.36
2023-05-04T06:34:35.327Z,10.34
2023-05-04T06:37:01.133Z,10.48
2023-05-04T06:39:26.986Z,10.59
2023-05-04T06:41:54.750Z,10.72
2023-05-04T06:44:21.574Z,10.91
2023-05-04T06:46:47.550Z,11.17
2023-05-04T06:49:13.350Z,11.25
2023-05-04T06:51:39.296Z,11.36
2023-05-04T06:54:05.566Z,11.26
2023-05-04T06:56:31.704Z,11.43
2023-05-04T06:58:57.912Z,11.50
2023-05-04T07:01:23.834Z,11.58
2023-05-04T07:03:49.859Z,11.58
2023-05-04T07:06:15.737Z,11.62
2023-05-04T07:08:41.799Z,11.73
2023-05-04T07:11:08.535Z,11.72
2023-05-04T07:13:34.314Z,11.72
2023-05-04T07:16:00.270Z,11.85
2023-05-04T07:18:26.149Z,11.93
2023-05-04T07:20:53.030Z,12.08
2023-05-04T07:23:22.073Z,12.13
2023-05-04T07:25:52.367Z,12.19
2023-05-04T07:28:19.394Z,12.28
2023-05-04T07:30:45.261Z,12.31
2023-05-04T07:33:11.222Z,12.31
2023-05-04T07:35:37.059Z,12.29
2023-05-04T07:38:02.910Z,12.36
2023-05-04T07:40:28.778Z,12.37
2023-05-04T07:42:55.602Z,12.46
2023-05-04T07:45:21.387Z,12.48
2023-05-04T07:47:47.241Z,12.57
2023-05-04T07:50:13.636Z,12.58
2023-05-04T07:52:39.426Z,12.67
2023-05-04T07:55:06.100Z,12.73
2023-05-04T07:57:32.807Z,12.85
2023-05-04T07:59:58.708Z,12.92
2023-05-04T08:02:24.918Z,13.14
2023-05-04T08:04:50.848Z,13.23
2023-05-04T08:07:16.966Z,13.39
2023-05-04T08:09:42.788Z,13.44
2023-05-04T08:12:08.512Z,13.41
2023-05-04T08:14:35.260Z,13.30
2023-05-04T08:17:02.310Z,13.43
2023-05-04T08:19:28.235Z,13.41
2023-05-04T08:21:54.063Z,13.42
2023-05-04T08:24:19.949Z,13.59
2023-05-04T08:26:55.654Z,13.80
2023-05-04T08:29:25.938Z,13.87
2023-05-04T08:31:53.944Z,13.74
2023-05-04T08:34:19.787Z,13.65
2023-05-04T08:36:46.361Z,13.71
2023-05-04T08:39:12.645Z,13.77
2023-05-04T08:41:40.144Z,14.05
2023-05-04T08:44:08.792Z,14.04
2023-05-04T08:46:35.571Z,14.33
2023-05-04T08:49:01.433Z,14.37
2023-05-04T08:51:28.080Z,14.43
2023-05-04T08:53:54.979Z,14.51
2023-05-04T08:56:22.182Z,14.27
2023-05-04T08:58:50.615Z,14.52
2023-05-04T09:01:18.476Z,14.64
2023-05-04T09:03:46.621Z,14.59
2023-05-04T09:06:13.520Z,14.67
2023-05-04T09:08:40.481Z,14.79
2023-05-04T09:11:06.408Z,14.85
2023-05-04T09:13:33.292Z,14.95
2023-05-04T09:15:59.301Z,15.01
2023-05-04T09:18:42.261Z,15.00
2023-05-04T09:21:08.660Z,14.90
2023-05-04T09:23:52.889Z,15.03
2023-05-04T09:26:32.070Z,15.06
2023-05-04T09:29:12.695Z,15.23
2023-05-04T09:31:46.554Z,15.51
2023-05-04T09:34:14.201Z,15.66
2023-05-04T09:36:41.406Z,15.43
2023-05-04T09:39:11.416Z,15.47
2023-05-04T09:41:37.462Z,15.57
2023-05-04T09:44:03.920Z,15.88
2023-05-04T09:46:30.168Z,16.01
2023-05-04T09:48:56.943Z,15.69
2023-05-04T09:51:25.724Z,15.88
2023-05-04T09:53:53.130Z,15.89
2023-05-04T09:56:40.429Z,16.15
2023-05-04T09:59:09.364Z,16.35
2023-05-04T10:01:35.874Z,16.49
2023-05-04T10:04:03.275Z,16.74
2023-05-04T10:06:29.621Z,16.91
2023-05-04T10:08:56.024Z,17.18
2023-05-04T10:11:25.019Z,17.27
2023-05-04T10:13:51.331Z,17.31
2023-05-04T10:16:40.728Z,17.43
2023-05-04T10:19:37.246Z,17.45
2023-05-04T10:22:17.650Z,17.93
2023-05-04T10:25:02.018Z,18.25
2023-05-04T10:27:43.271Z,18.48
2023-05-04T10:30:11.415Z,18.53
2023-05-04T10:32:39.208Z,18.59
2023-05-04T10:35:07.079Z,18.61
2023-05-04T10:37:33.325Z,18.87
2023-05-04T10:39:59.170Z,18.97
2023-05-04T10:42:25.045Z,18.84
2023-05-04T10:44:54.420Z,18.62
2023-05-04T10:47:56.571Z,18.50
2023-05-04T10:50:22.372Z,19.04
2023-05-04T10:52:56.366Z,19.42
2023-05-04T10:55:23.309Z,18.90
2023-05-04T10:57:58.319Z,19.02
2023-05-04T11:00:38.129Z,19.39
2023-05-04T11:03:06.613Z,19.53
2023-05-04T11:05:53.796Z,19.54
2023-05-04T11:08:21.609Z,19.75
2023-05-04T11:10:48.973Z,20.02
2023-05-04T11:13:18.297Z,19.94
2023-05-04T11:15:53.555Z,20.03
2023-05-04T11:18:26.339Z,19.86
2023-05-04T11:20:52.178Z,19.79
2023-05-04T11:23:18.069Z,19.74
2023-05-04T11:25:43.989Z,20.15
2023-05-04T11:28:09.777Z,20.52
2023-05-04T11:30:41.539Z,20.57
2023-05-04T11:33:12.882Z,20.96
2023-05-04T11:35:39.624Z,20.87
2023-05-04T11:38:06.876Z,21.11
2023-05-04T11:40:33.092Z,21.55
2023-05-04T11:42:59.658Z,21.49
2023-05-04T11:45:31.747Z,21.81
2023-05-04T11:47:58.790Z,21.91
2023-05-04T11:50:26.171Z,21.84
2023-05-04T11:53:09.935Z,21.77
2023-05-04T11:55:39.327Z,22.06
2023-05-04T11:58:10.195Z,21.83
2023-05-04T12:00:40.122Z,21.53
2023-05-04T12:03:08.529Z,21.83
2023-05-04T12:05:35.649Z,22.03
2023-05-04T12:08:02.738Z,22.36
2023-05-04T12:10:30.608Z,22.48
2023-05-04T12:12:56.705Z,21.82
2023-05-04T12:15:35.851Z,21.62
2023-05-04T12:18:03.252Z,21.82
2023-05-04T12:20:32.798Z,21.72
2023-05-04T12:23:05.259Z,21.35
2023-05-04T12:25:31.089Z,21.73
2023-05-04T12:27:57.114Z,21.49
2023-05-04T12:30:22.924Z,21.83
2023-05-04T12:32:48.779Z,21.76
2023-05-04T12:35:14.749Z,22.23
2023-05-04T12:37:41.397Z,22.36
2023-05-04T12:40:20.881Z,22.83
2023-05-04T12:42:53.965Z,22.78
2023-05-04T12:45:21.829Z,22.63
2023-05-04T12:47:47.648Z,22.71
2023-05-04T12:50:13.544Z,22.51
2023-05-04T12:52:40.244Z,22.65
2023-05-04T12:55:06.813Z,23.30
2023-05-04T12:57:32.811Z,23.67
2023-05-04T12:59:59.956Z,23.41
2023-05-04T13:02:26.259Z,23.91
2023-05-04T13:04:52.128Z,24.34
2023-05-04T13:07:17.901Z,24.02
2023-05-04T13:09:43.722Z,23.72
2023-05-04T13:12:09.518Z,23.76
2023-05-04T13:14:39.255Z,23.17
2023-05-04T13:17:05.840Z,22.95
2023-05-04T13:19:31.710Z,22.52
2023-05-04T13:21:57.492Z,22.76
2023-05-04T13:24:23.430Z,22.76
2023-05-04T13:26:49.365Z,22.63
2023-05-04T13:29:15.283Z,22.74
2023-05-04T13:31:44.999Z,22.71
2023-05-04T13:34:11.118Z,22.64
2023-05-04T13:36:36.902Z,23.24
2023-05-04T13:39:02.750Z,23.30
2023-05-04T13:41:28.593Z,22.88
2023-05-04T13:43:54.442Z,23.15
2023-05-04T13:46:20.898Z,22.64
2023-05-04T13:48:46.807Z,22.61
2023-05-04T13:51:12.614Z,23.16
2023-05-04T13:53:38.433Z,22.48
2023-05-04T13:56:04.985Z,22.58
2023-05-04T13:58:30.871Z,22.56
2023-05-04T14:00:58.418Z,22.29
2023-05-04T14:03:24.333Z,22.08
2023-05-04T14:05:51.063Z,21.67
2023-05-04T14:08:16.905Z,22.09
2023-05-04T14:10:42.759Z,22.80
2023-05-04T14:13:08.764Z,23.31
2023-05-04T14:15:55.407Z,23.42
2023-05-04T14:18:21.318Z,23.57
2023-05-04T14:20:47.817Z,22.88
2023-05-04T14:23:13.724Z,22.46
2023-05-04T14:25:41.480Z,23.13
2023-05-04T14:28:08.126Z,23.49
2023-05-04T14:30:34.054Z,23.58
2023-05-04T14:33:02.857Z,23.27
2023-05-04T14:35:28.739Z,23.53
2023-05-04T14:37:54.721Z,23.64
2023-05-04T14:40:20.860Z,23.68
2023-05-04T14:42:46.748Z,23.67
2023-05-04T14:45:12.834Z,23.70
2023-05-04T14:47:39.032Z,23.54
2023-05-04T14:50:06.323Z,23.47
2023-05-04T14:52:32.300Z,23.41
2023-05-04T14:54:58.104Z,23.51
2023-05-04T14:57:23.974Z,23.61
2023-05-04T14:59:49.792Z,23.79
2023-05-04T15:02:16.732Z,23.73
2023-05-04T15:04:42.626Z,23.69
2023-05-04T15:07:08.744Z,22.84
2023-05-04T15:09:34.844Z,22.81
2023-05-04T15:12:00.956Z,22.28
2023-05-04T15:14:26.774Z,22.63
2023-05-04T15:16:52.733Z,22.25
2023-05-04T15:19:18.561Z,22.19
2023-05-04T15:21:44.420Z,22.16
2023-05-04T15:24:10.350Z,22.35
2023-05-04T15:26:36.194Z,22.38
2023-05-04T15:29:01.986Z,22.15
2023-05-04T15:31:27.876Z,22.07
2023-05-04T15:33:53.643Z,22.02
2023-05-04T15:36:19.477Z,21.96
2023-05-04T15:38:45.269Z,21.89
2023-05-04T15:41:13.027Z,21.81
2023-05-04T15:43:38.824Z,22.10
2023-05-04T15:46:04.646Z,22.20
2023-05-04T15:48:30.615Z,22.35
2023-05-04T15:50:56.461Z,22.51
2023-05-04T15:53:22.375Z,22.47
2023-05-04T15:55:49.596Z,22.45
2023-05-04T15:58:15.512Z,21.98
2023-05-04T16:00:41.446Z,21.95
2023-05-04T16:03:07.964Z,21.97
2023-05-04T16:05:34.154Z,21.79
2023-05-04T16:08:00.454Z,21.46
2023-05-04T16:10:26.301Z,21.54
2023-05-04T16:12:52.450Z,21.82
2023-05-04T16:15:18.669Z,21.75
2023-05-04T16:17:44.460Z,21.83
2023-05-04T16:20:11.042Z,21.78
2023-05-04T16:22:39.677Z,21.47
2023-05-04T16:25:10.833Z,21.47
2023-05-04T16:27:37.369Z,21.31
2023-05-04T16:30:03.541Z,21.15
2023-05-04T16:32:29.478Z,21.23
2023-05-04T16:34:55.288Z,21.05
2023-05-04T16:37:21.141Z,21.13
2023-05-04T16:39:46.941Z,21.03
2023-05-04T16:42:12.938Z,21.18
2023-05-04T16:44:38.813Z,21.09
2023-05-04T16:47:04.724Z,21.42
2023-05-04T16:49:31.559Z,21.48
2023-05-04T16:51:57.405Z,21.21
2023-05-04T16:54:23.360Z,21.05
2023-05-04T16:56:49.662Z,21.06
2023-05-04T16:59:15.891Z,21.23
2023-05-04T17:01:42.807Z,21.27
2023-05-04T17:04:10.071Z,21.17
2023-05-04T17:06:36.854Z,20.93
2023-05-04T17:09:04.079Z,20.82
2023-05-04T17:11:33.763Z,20.78
2023-05-04T17:14:00.575Z,20.45
2023-05-04T17:16:26.538Z,20.41
2023-05-04T17:18:52.482Z,20.46
2023-05-04T17:21:18.373Z,20.52
2023-05-04T17:23:44.206Z,20.59
2023-05-04T17:26:10.143Z,20.35
2023-05-04T17:28:36.298Z,20.49
2023-05-04T17:31:02.300Z,20.60
2023-05-04T17:33:28.478Z,20.75
2023-05-04T17:35:54.277Z,20.52
2023-05-04T17:38:20.121Z,20.42
2023-05-04T17:40:45.984Z,20.32
2023-05-04T17:43:11.822Z,20.14
2023-05-04T17:45:37.714Z,19.86
2023-05-04T17:48:03.830Z,19.83
2023-05-04T17:50:29.996Z,19.93
2023-05-04T17:52:56.291Z,20.02
2023-05-04T17:55:23.958Z,20.07
2023-05-04T17:57:51.185Z,19.92
2023-05-04T18:00:17.373Z,19.77
2023-05-04T18:02:43.814Z,19.59
2023-05-04T18:05:10.282Z,19.41
2023-05-04T18:07:36.216Z,19.22
2023-05-04T18:10:02.847Z,19.12
2023-05-04T18:12:28.767Z,19.07
2023-05-04T18:14:54.708Z,18.98
2023-05-04T18:17:20.692Z,18.82
2023-05-04T18:19:46.541Z,18.82
2023-05-04T18:22:12.455Z,18.74
2023-05-04T18:24:38.516Z,18.59
2023-05-04T18:27:04.635Z,18.58
2023-05-04T18:29:31.462Z,18.44
2023-05-04T18:31:58.943Z,18.40
2023-05-04T18:34:24.833Z,18.38
2023-05-04T18:36:50.760Z,18.31
2023-05-04T18:39:16.820Z,18.32
2023-05-04T18:41:42.829Z,18.24
2023-05-04T18:44:09.418Z,18.24
2023-05-04T18:46:35.541Z,18.24
2023-05-04T18:49:02.033Z,18.20
2023-05-04T18:51:28.010Z,18.07
2023-05-04T18:53:54.017Z,18.04
2023-05-04T18:56:19.904Z,17.96
2023-05-04T18:58:45.851Z,18.03
2023-05-04T19:01:12.829Z,17.91
2023-05-04T19:03:38.856Z,17.86
2023-05-04T19:06:05.008Z,17.85
2023-05-04T19:08:31.164Z,17.78
2023-05-04T19:11:02.262Z,17.75
2023-05-04T19:13:28.603Z,17.58
2023-05-04T19:15:54.862Z,17.65
2023-05-04T19:18:21.599Z,17.57
2023-05-04T19:20:47.834Z,17.53
2023-05-04T19:23:13.932Z,17.52
2023-05-04T19:25:39.936Z,17.51
2023-05-04T19:28:09.356Z,17.48
2023-05-04T19:30:36.689Z,17.49
2023-05-04T19:33:03.472Z,17.45
2023-05-04T19:35:29.644Z,17.32
2023-05-04T19:37:56.552Z,17.31
2023-05-04T19:40:22.841Z,17.28
2023-05-04T19:42:48.900Z,17.32
2023-05-04T19:45:14.926Z,17.25
2023-05-04T19:47:41.076Z,17.30
2023-05-04T19:50:10.934Z,17.15
2023-05-04T19:52:37.810Z,17.07
2023-05-04T19:55:05.512Z,17.13
2023-05-04T19:57:32.244Z,17.15
2023-05-04T19:59:58.789Z,16.99
2023-05-04T20:02:25.420Z,17.20
2023-05-04T20:04:51.617Z,17.09
2023-05-04T20:07:17.606Z,17.03
2023-05-04T20:09:43.650Z,16.92
2023-05-04T20:12:10.632Z,16.97
2023-05-04T20:14:36.997Z,16.92
2023-05-04T20:17:03.334Z,16.86
2023-05-04T20:19:29.316Z,16.85
2023-05-04T20:21:55.296Z,16.84
2023-05-04T20:24:21.677Z,16.88
2023-05-04T20:26:47.661Z,16.91
2023-05-04T20:29:13.644Z,16.83
2023-05-04T20:31:40.693Z,16.83
2023-05-04T20:34:06.788Z,16.71
2023-05-04T20:36:33.088Z,16.71
2023-05-04T20:39:01.752Z,16.76
2023-05-04T20:41:27.941Z,16.76
2023-05-04T20:43:53.889Z,16.77
2023-05-04T20:46:19.730Z,16.81
2023-05-04T20:48:45.709Z,16.77
2023-05-04T20:51:14.520Z,16.79
2023-05-04T20:53:41.264Z,16.75
2023-05-04T20:56:07.357Z,16.73
2023-05-04T20:58:33.210Z,16.71
2023-05-04T21:01:03.382Z,16.68
2023-05-04T21:03:29.550Z,16.68
2023-05-04T21:05:56.350Z,16.55
2023-05-04T21:08:22.230Z,16.56
2023-05-04T21:10:48.323Z,16.52
2023-05-04T21:13:14.272Z,16.58
2023-05-04T21:15:40.510Z,16.58
2023-05-04T21:18:06.821Z,16.46
2023-05-04T21:20:32.701Z,16.44
2023-05-04T21:22:58.502Z,16.51
2023-05-04T21:25:24.328Z,16.38
2023-05-04T21:27:50.474Z,16.44
2023-05-04T21:30:16.419Z,16.46
2023-05-04T21:32:42.217Z,16.44
2023-05-04T21:35:08.271Z,16.40
2023-05-04T21:37:34.118Z,16.38
2023-05-04T21:40:02.231Z,16.30
2023-05-04T21:42:28.605Z,16.31
2023-05-04T21:44:57.789Z,16.42
2023-05-04T21:47:23.916Z,16.30
2023-05-04T21:49:51.598Z,16.21
2023-05-04T21:52:17.421Z,16.17
2023-05-04T21:54:43.459Z,16.15
2023-05-04T21:57:09.229Z,16.22
2023-05-04T21:59:35.148Z,16.25
2023-05-04T22:02:00.939Z,16.16
2023-05-04T22:04:26.911Z,16.10
2023-05-04T22:06:52.722Z,16.06
2023-05-04T22:09:18.756Z,16.10
2023-05-04T22:11:45.933Z,16.16
2023-05-04T22:14:11.864Z,16.06
2023-05-04T22:16:37.649Z,16.20
2023-05-04T22:19:03.519Z,16.20
2023-05-04T22:21:29.375Z,16.24
2023-05-04T22:23:55.204Z,16.19
2023-05-04T22:26:20.960Z,16.13
2023-05-04T22:28:46.773Z,16.24
2023-05-04T22:31:12.724Z,16.21
2023-05-04T22:33:38.537Z,16.10
2023-05-04T22:36:04.606Z,16.14
2023-05-04T22:38:30.395Z,16.16
2023-05-04T22:40:56.139Z,16.18
2023-05-04T22:43:22.020Z,16.09
2023-05-04T22:45:47.826Z,16.10
2023-05-04T22:48:14.269Z,16.04
2023-05-04T22:50:40.799Z,16.17
2023-05-04T22:53:06.740Z,16.11
2023-05-04T22:55:32.613Z,16.10
2023-05-04T22:57:59.077Z,16.10
2023-05-04T23:00:25.340Z,16.09
2023-05-04T23:02:51.211Z,16.10
2023-05-04T23:05:17.315Z,16.20
2023-05-04T23:07:43.235Z,15.99
2023-05-04T23:10:09.665Z,15.99
2023-05-04T23:12:35.678Z,15.97
2023-05-04T23:15:03.602Z,15.91
2023-05-04T23:17:29.420Z,15.92
2023-05-04T23:19:55.380Z,15.92
2023-05-04T23:22:21.146Z,15.87
2023-05-04T23:24:46.927Z,15.87
2023-05-04T23:27:12.741Z,15.90
2023-05-04T23:29:38.574Z,15.80
2023-05-04T23:32:04.904Z,15.82
2023-05-04T23:34:31.264Z,15.78
2023-05-04T23:36:57.041Z,15.70
2023-05-04T23:39:22.845Z,15.73
2023-05-04T23:41:48.925Z,15.71
2023-05-04T23:44:15.687Z,15.77
2023-05-04T23:46:41.475Z,15.76
2023-05-04T23:49:07.223Z,15.81
2023-05-04T23:51:33.147Z,15.82
2023-05-04T23:53:59.018Z,15.77
2023-05-04T23:56:24.816Z,15.92
2023-05-04T23:58:50.646Z,15.86
